Time;durP1;ratioP1;P1;durP2;ratioP2;P2;SDS_P1;SDS_P2;PMS_P1;PMS_P2;Temp;Humidity;BMP_temperature;BMP_pressure;BME280_temperature;BME280_humidity;BME280_pressure;Samples;Min_cycle;Max_cycle;Signal;HPM_P1;HPM_P2
2022/06/16 00:00:33;;;;;;;;;;;;;;;13.65;100.00;99168.53;4254905;33;19947;-74
2022/06/16 00:03:04;;;;;;;;;;;;;;;13.78;100.00;99176.16;4254416;33;19941;-74
2022/06/16 00:05:31;;;;;;;;;;;;;;;13.91;100.00;99165.91;4256194;33;19988;-74
2022/06/16 00:07:57;;;;;;;;;;;;;;;13.91;100.00;99166.72;4256179;33;20248;-74
2022/06/16 00:10:24;;;;;;;;;;;;;;;13.83;100.00;99175.34;4240849;33;20325;-73
2022/06/16 00:12:50;;;;;;;;;;;;;;;13.79;100.00;99169.66;4248810;33;20390;-75
2022/06/16 00:15:17;;;;;;;;;;;;;;;13.71;100.00;99167.47;4253561;33;19941;-74
2022/06/16 00:17:44;;;;;;;;;;;;;;;13.69;100.00;99166.94;4254782;33;19951;-74
2022/06/16 00:20:11;;;;;;;;;;;;;;;13.68;100.00;99165.31;4239998;33;20335;-73
2022/06/16 00:22:37;;;;;;;;;;;;;;;13.68;100.00;99162.59;4241625;33;19947;-74
2022/06/16 00:25:04;;;;;;;;;;;;;;;13.66;100.00;99159.38;4239263;33;19975;-73
2022/06/16 00:27:31;;;;;;;;;;;;;;;13.64;100.00;99150.69;4228140;33;20008;-74
2022/06/16 00:29:57;;;;;;;;;;;;;;;13.66;100.00;99153.94;4241328;33;20331;-74
2022/06/16 00:32:24;;;;;;;;;;;;;;;13.68;100.00;99156.38;4241060;33;20388;-73
2022/06/16 00:34:50;;;;;;;;;;;;;;;13.63;100.00;99149.06;4228135;33;19974;-74
2022/06/16 00:37:17;;;;;;;;;;;;;;;13.62;100.00;99155.56;4239188;33;19942;-74
2022/06/16 00:39:43;;;;;;;;;;;;;;;13.59;100.00;99158.78;4242231;33;19958;-73
2022/06/16 00:42:11;;;;;;;;;;;;;;;13.56;100.00;99156.63;4234487;33;19955;-73
2022/06/16 00:44:39;;;;;;;;;;;;;;;13.67;100.00;99155.56;4252587;33;19951;-74
2022/06/16 00:47:05;;;;;;;;;;;;;;;13.61;100.00;99151.25;4227633;33;19937;-75
2022/06/16 00:49:33;;;;;;;;;;;;;;;13.62;100.00;99153.69;4240029;33;19970;-73
2022/06/16 00:52:02;;;;;;;;;;;;;;;13.59;100.00;99145.25;4240892;33;19960;-73
2022/06/16 00:54:34;;;;;;;;;;;;;;;13.64;100.00;99142.56;4247853;33;19942;-75
2022/06/16 00:57:06;;;;;;;;;;;;;;;13.59;100.00;99137.97;4242098;33;19981;-73
2022/06/16 00:59:33;;;;;;;;;;;;;;;13.52;100.00;99142.81;4254645;33;19938;-74
2022/06/16 01:01:59;;;;;;;;;;;;;;;13.62;100.00;99142.03;4255048;33;19967;-74
2022/06/16 01:07:13;;;;;;;;;;;;;;;13.56;100.00;99138.50;4244047;33;19976;-74
2022/06/16 01:09:41;;;;;;;;;;;;;;;13.64;100.00;99139.84;4253335;33;19957;-74
2022/06/16 01:15:21;;;;;;;;;;;;;;;13.64;100.00;99134.44;4240903;33;20287;-73
2022/06/16 01:17:47;;;;;;;;;;;;;;;13.70;100.00;99127.97;4239949;33;19960;-73
2022/06/16 01:20:20;;;;;;;;;;;;;;;13.81;100.00;99135.03;4228180;33;19945;-74
2022/06/16 01:23:05;;;;;;;;;;;;;;;13.82;100.00;99130.44;4227187;33;19960;-73
2022/06/16 01:25:43;;;;;;;;;;;;;;;13.78;100.00;99130.13;4239348;33;19941;-73
2022/06/16 01:28:20;;;;;;;;;;;;;;;13.84;100.00;99127.47;4226218;33;19955;-73
2022/06/16 01:30:49;;;;;;;;;;;;;;;13.76;100.00;99126.91;4241484;33;20339;-73
2022/06/16 01:33:36;;;;;;;;;;;;;;;13.78;100.00;99132.84;4240488;33;19942;-73
2022/06/16 01:36:36;;;;;;;;;;;;;;;13.83;100.00;99125.84;4227078;33;20783;-73
2022/06/16 01:39:06;;;;;;;;;;;;;;;13.74;100.00;99129.06;4224637;33;19967;-74
2022/06/16 01:41:42;;;;;;;;;;;;;;;13.74;100.00;99129.06;4253933;33;19941;-74
2022/06/16 01:44:13;;;;;;;;;;;;;;;13.77;100.00;99128.53;4244212;33;19946;-74
2022/06/16 01:46:44;;;;;;;;;;;;;;;13.78;100.00;99126.63;4227313;33;19933;-74
2022/06/16 01:49:21;;;;;;;;;;;;;;;13.77;100.00;99123.13;4238444;33;20420;-74
2022/06/16 01:51:50;;;;;;;;;;;;;;;13.65;100.00;99125.25;4240482;33;20358;-73
2022/06/16 01:54:23;;;;;;;;;;;;;;;13.62;100.00;99120.38;4255728;33;19949;-74
2022/06/16 01:57:10;;;;;;;;;;;;;;;13.52;100.00;99121.16;4258489;33;19942;-75
2022/06/16 01:59:39;;;;;;;;;;;;;;;13.54;100.00;99120.91;4242664;33;20354;-73
2022/06/16 02:02:12;;;;;;;;;;;;;;;13.54;100.00;99118.19;4244815;33;19938;-74
2022/06/16 02:04:45;;;;;;;;;;;;;;;13.54;100.00;99118.19;4242563;33;19979;-75
2022/06/16 02:07:14;;;;;;;;;;;;;;;13.40;100.00;99074.62;4243771;33;19950;-74
2022/06/16 02:09:42;;;;;;;;;;;;;;;13.67;100.00;99112.25;4244881;33;20377;-74
2022/06/16 02:12:10;;;;;;;;;;;;;;;13.67;100.00;99112.25;4243279;33;20297;-74
2022/06/16 02:14:37;;;;;;;;;;;;;;;13.60;100.00;99112.53;4244039;33;19938;-75
2022/06/16 02:17:05;;;;;;;;;;;;;;;13.61;100.00;99114.16;4231456;33;19933;-74
2022/06/16 02:19:32;;;;;;;;;;;;;;;13.62;100.00;99120.38;4244600;33;19958;-74
2022/06/16 02:21:59;;;;;;;;;;;;;;;13.76;100.00;99112.56;4243339;33;19955;-74
2022/06/16 02:24:26;;;;;;;;;;;;;;;13.70;100.00;99114.44;4244771;33;19964;-74
2022/06/16 02:26:54;;;;;;;;;;;;;;;13.81;100.00;99107.16;4237526;33;20000;-75
2022/06/16 02:29:26;;;;;;;;;;;;;;;13.53;100.00;99046.22;4244349;33;19972;-74
2022/06/16 02:32:08;;;;;;;;;;;;;;;13.97;100.00;99105.28;4244983;33;19937;-74
2022/06/16 02:34:35;;;;;;;;;;;;;;;13.93;100.00;99106.91;4229927;33;19937;-75
2022/06/16 02:37:10;;;;;;;;;;;;;;;13.88;100.00;99101.47;4244672;33;19981;-75
2022/06/16 02:39:43;;;;;;;;;;;;;;;13.78;100.00;99103.09;4231792;33;19934;-74
2022/06/16 02:42:18;;;;;;;;;;;;;;;13.75;100.00;99103.66;4244664;33;19941;-73
2022/06/16 02:44:51;;;;;;;;;;;;;;;13.85;100.00;99102.00;4244152;33;19952;-74
2022/06/16 02:47:47;;;;;;;;;;;;;;;13.93;100.00;99106.91;4244884;33;19933;-74
2022/06/16 02:50:31;;;;;;;;;;;;;;;13.98;100.00;99102.28;4244053;33;20007;-75
2022/06/16 02:53:06;;;;;;;;;;;;;;;14.07;100.00;99105.28;4243394;33;19942;-74
2022/06/16 02:55:37;;;;;;;;;;;;;;;14.16;100.00;99098.22;4229929;33;19945;-74
2022/06/16 02:58:03;;;;;;;;;;;;;;;14.17;100.00;99105.28;4231350;33;19963;-74
2022/06/16 03:00:34;;;;;;;;;;;;;;;14.20;100.00;99095.81;4243034;33;19977;-73
2022/06/16 03:03:21;;;;;;;;;;;;;;;14.12;100.00;99099.88;4244716;33;19987;-74
2022/06/16 03:05:49;;;;;;;;;;;;;;;14.23;100.00;99102.56;4232623;33;20256;-73
2022/06/16 03:08:16;;;;;;;;;;;;;;;14.25;100.00;99103.09;4244210;33;20320;-74
2022/06/16 03:10:51;;;;;;;;;;;;;;;14.23;100.00;99105.25;4240202;33;19997;-74
2022/06/16 03:13:26;;;;;;;;;;;;;;;14.15;100.00;99106.63;4241830;33;20156;-73
2022/06/16 03:15:53;;;;;;;;;;;;;;;14.23;100.00;99100.69;4242376;33;19995;-74
2022/06/16 03:18:20;;;;;;;;;;;;;;;14.13;100.00;99106.88;4241998;33;19934;-74
2022/06/16 03:20:47;;;;;;;;;;;;;;;14.16;100.00;99108.25;4242072;33;19975;-74
2022/06/16 03:23:14;;;;;;;;;;;;;;;14.17;100.00;99105.28;4239427;33;19951;-74
2022/06/16 03:25:41;;;;;;;;;;;;;;;14.20;100.00;99103.09;4241958;33;20345;-74
2022/06/16 03:28:08;;;;;;;;;;;;;;;14.22;100.00;99103.66;4241945;33;19946;-74
2022/06/16 03:30:36;;;;;;;;;;;;;;;14.13;100.00;99108.78;4242069;33;19959;-73
2022/06/16 03:33:03;;;;;;;;;;;;;;;14.19;100.00;99106.91;4239936;33;20285;-74
2022/06/16 03:35:30;;;;;;;;;;;;;;;14.31;100.00;99105.53;4245805;33;19957;-73
2022/06/16 03:37:59;;;;;;;;;;;;;;;14.40;100.00;99113.12;4252130;33;19946;-73
2022/06/16 03:40:26;;;;;;;;;;;;;;;14.31;100.00;99102.00;4241977;33;19977;-73
2022/06/16 03:42:53;;;;;;;;;;;;;;;14.46;100.00;99096.56;4249059;33;20317;-73
2022/06/16 03:45:21;;;;;;;;;;;;;;;14.39;100.00;99098.78;4240281;33;20362;-74
2022/06/16 03:47:48;;;;;;;;;;;;;;;14.37;100.00;99098.22;4243282;33;19963;-73
2022/06/16 03:50:16;;;;;;;;;;;;;;;14.40;100.00;99094.97;4248641;33;19934;-73
2022/06/16 03:52:42;;;;;;;;;;;;;;;14.50;100.00;99103.09;4239772;33;19938;-73
2022/06/16 03:55:09;;;;;;;;;;;;;;;14.54;100.00;99097.94;4241301;33;20292;-74
2022/06/16 03:57:37;;;;;;;;;;;;;;;14.61;100.00;99095.75;4227045;33;19949;-73
2022/06/16 04:00:04;;;;;;;;;;;;;;;14.56;100.00;99095.75;4246139;33;20014;-74
2022/06/16 04:02:32;;;;;;;;;;;;;;;14.58;100.00;99087.34;4233823;33;20310;-73
2022/06/16 04:05:01;;;;;;;;;;;;;;;14.66;100.00;99094.94;4239983;33;19977;-74
2022/06/16 04:07:28;;;;;;;;;;;;;;;14.67;100.00;99091.94;4240898;33;19942;-74
2022/06/16 04:09:56;;;;;;;;;;;;;;;14.64;100.00;99091.69;4240051;33;19951;-74
2022/06/16 04:12:23;;;;;;;;;;;;;;;14.56;100.00;99100.34;4240875;33;19949;-73
2022/06/16 04:14:49;;;;;;;;;;;;;;;14.59;100.00;99095.19;4255883;33;19940;-74
2022/06/16 04:17:17;;;;;;;;;;;;;;;14.56;100.00;99100.34;4254801;33;20296;-76
2022/06/16 04:22:30;;;;;;;;;;;;;;;14.69;100.00;99080.84;4254082;33;19941;-74
2022/06/16 04:24:57;;;;;;;;;;;;;;;14.82;100.00;99091.12;4245577;33;20061;-74
2022/06/16 04:27:23;;;;;;;;;;;;;;;14.99;100.00;99088.06;4240823;33;19948;-74
2022/06/16 04:29:50;;;;;;;;;;;;;;;14.91;100.00;99085.13;4226165;33;19929;-77
2022/06/16 04:32:17;;;;;;;;;;;;;;;14.96;100.00;99076.97;4241048;33;20861;-74
2022/06/16 04:34:44;;;;;;;;;;;;;;;15.02;100.00;99075.84;4241140;33;19952;-74
2022/06/16 04:37:11;;;;;;;;;;;;;;;15.06;100.00;99071.47;4240790;33;19952;-74
2022/06/16 04:39:38;;;;;;;;;;;;;;;14.88;100.00;99073.72;4240365;33;19934;-74
2022/06/16 04:42:05;;;;;;;;;;;;;;;14.81;100.00;99075.12;4243541;33;19937;-76
2022/06/16 04:44:32;;;;;;;;;;;;;;;14.83;100.00;99073.75;4255244;33;20004;-75
2022/06/16 04:46:58;;;;;;;;;;;;;;;14.82;100.00;99077.56;4255546;33;20278;-74
2022/06/16 04:49:25;;;;;;;;;;;;;;;14.82;100.00;99077.56;4244602;33;19941;-74
2022/06/16 04:51:51;;;;;;;;;;;;;;;14.85;100.00;99065.34;4255523;33;20324;-74
2022/06/16 04:54:18;;;;;;;;;;;;;;;14.94;100.00;99066.38;4243876;33;19960;-73
2022/06/16 04:56:44;;;;;;;;;;;;;;;14.93;100.00;99063.94;4245094;33;19995;-73
2022/06/16 04:59:13;;;;;;;;;;;;;;;14.80;100.00;99068.06;4240101;33;20024;-74
2022/06/16 05:01:40;;;;;;;;;;;;;;;14.91;100.00;99058.81;4232320;33;20320;-73
2022/06/16 05:04:07;;;;;;;;;;;;;;;14.96;100.00;99066.13;4249551;33;19955;-76
2022/06/16 05:06:33;;;;;;;;;;;;;;;14.96;100.00;99066.13;4238095;33;20323;-73
2022/06/16 05:09:02;;;;;;;;;;;;;;;14.98;100.00;99069.34;4246350;33;19958;-75
2022/06/16 05:11:28;;;;;;;;;;;;;;;15.08;100.00;99069.31;4250449;33;19949;-73
2022/06/16 05:13:55;;;;;;;;;;;;;;;15.07;100.00;99060.34;4243876;33;19956;-73
2022/06/16 05:16:23;;;;;;;;;;;;;;;15.18;100.00;99074.69;4246190;33;19941;-74
2022/06/16 05:18:49;;;;;;;;;;;;;;;15.41;100.00;99056.09;4244155;33;19957;-73
2022/06/16 05:21:16;;;;;;;;;;;;;;;15.47;100.00;99065.84;4240486;33;19941;-73
2022/06/16 05:23:43;;;;;;;;;;;;;;;15.45;100.00;99068.03;4243536;33;20325;-76
2022/06/16 05:26:09;;;;;;;;;;;;;;;15.61;100.00;99064.13;4251913;33;19967;-73
2022/06/16 05:28:36;;;;;;;;;;;;;;;15.76;100.00;99062.38;4239645;33;19959;-73
2022/06/16 05:31:05;;;;;;;;;;;;;;;15.88;100.00;99060.16;4242228;33;19957;-74
2022/06/16 05:33:32;;;;;;;;;;;;;;;15.90;100.00;99052.53;4254509;33;19994;-73
2022/06/16 05:36:02;;;;;;;;;;;;;;;16.06;100.00;99046.97;4254421;33;19941;-73
2022/06/16 05:38:29;;;;;;;;;;;;;;;16.49;100.00;99047.09;4250700;33;19937;-77
2022/06/16 05:40:57;;;;;;;;;;;;;;;16.59;100.00;99040.72;4254165;33;19957;-74
2022/06/16 05:43:24;;;;;;;;;;;;;;;16.71;100.00;99039.22;4251269;33;20068;-73
2022/06/16 05:45:51;;;;;;;;;;;;;;;16.58;100.00;99037.22;4242759;33;19977;-73
2022/06/16 05:48:18;;;;;;;;;;;;;;;16.58;100.00;99039.09;4243160;33;19946;-74
2022/06/16 05:50:51;;;;;;;;;;;;;;;16.69;100.00;99041.44;4245632;33;19988;-73
2022/06/16 05:53:18;;;;;;;;;;;;;;;16.79;100.00;99034.25;4231128;33;19982;-72
2022/06/16 05:55:44;;;;;;;;;;;;;;;16.71;100.00;99033.78;4239687;33;19945;-72
2022/06/16 05:58:11;;;;;;;;;;;;;;;16.86;100.00;99030.12;4236689;33;20038;-73
2022/06/16 06:00:41;;;;;;;;;;;;;;;16.84;100.00;99035.00;4239221;33;19984;-75
2022/06/16 06:03:09;;;;;;;;;;;;;;;16.84;100.00;99043.16;4236313;33;19955;-72
2022/06/16 06:05:36;;;;;;;;;;;;;;;16.98;100.00;99035.13;4249595;33;19957;-74
2022/06/16 06:16:26;;;;;;;;;;;;;;;17.54;100.00;99038.16;4248438;33;20303;-75
2022/06/16 06:18:54;;;;;;;;;;;;;;;17.55;100.00;99028.88;4253327;33;20002;-73
2022/06/16 06:24:08;;;;;;;;;;;;;;;17.72;100.00;99031.06;4254032;33;20291;-72
2022/06/16 06:26:34;;;;;;;;;;;;;;;17.67;100.00;99031.97;4254129;33;19945;-73
2022/06/16 06:29:01;;;;;;;;;;;;;;;17.51;100.00;99033.31;4243815;33;20006;-75
2022/06/16 06:31:27;;;;;;;;;;;;;;;17.69;100.00;99035.19;4241301;33;20075;-73
2022/06/16 06:33:54;;;;;;;;;;;;;;;17.82;100.00;99032.81;4247908;33;19940;-78
2022/06/16 06:36:20;;;;;;;;;;;;;;;17.87;100.00;99030.00;4252010;33;19937;-73
2022/06/16 06:38:46;;;;;;;;;;;;;;;17.92;100.00;99027.25;4254817;33;19984;-74
2022/06/16 06:41:12;;;;;;;;;;;;;;;17.85;100.00;99024.06;4243106;33;19934;-74
2022/06/16 06:43:38;;;;;;;;;;;;;;;18.08;100.00;99023.16;4249337;33;19945;-75
2022/06/16 06:46:05;;;;;;;;;;;;;;;17.91;100.00;99012.00;4241498;33;19955;-75
2022/06/16 06:48:32;;;;;;;;;;;;;;;17.84;100.00;99014.25;4228038;33;19943;-74
2022/06/16 06:50:58;;;;;;;;;;;;;;;18.04;100.00;99011.22;4242750;33;19945;-73
2022/06/16 06:53:24;;;;;;;;;;;;;;;18.10;100.00;99011.94;4231077;33;20358;-73
2022/06/16 06:55:51;;;;;;;;;;;;;;;18.26;100.00;99015.22;4232549;33;20350;-73
2022/06/16 06:58:21;;;;;;;;;;;;;;;18.33;100.00;99004.69;4241476;33;19951;-79
2022/06/16 07:00:49;;;;;;;;;;;;;;;18.49;100.00;99014.22;4241976;33;19942;-74
2022/06/16 07:03:16;;;;;;;;;;;;;;;18.61;100.00;99007.47;4253977;33;19937;-73
2022/06/16 07:05:43;;;;;;;;;;;;;;;18.50;100.00;99004.13;4256844;33;19959;-74
2022/06/16 07:08:09;;;;;;;;;;;;;;;18.53;100.00;98998.06;4256656;33;19942;-74
2022/06/16 07:10:36;;;;;;;;;;;;;;;18.59;100.00;99001.47;4250567;33;19956;-75
2022/06/16 07:13:02;;;;;;;;;;;;;;;18.72;100.00;98992.50;4241998;33;20368;-73
2022/06/16 07:15:28;;;;;;;;;;;;;;;18.78;100.00;99001.38;4244211;33;20283;-73
2022/06/16 07:17:55;;;;;;;;;;;;;;;18.76;100.00;98998.12;4252752;33;19941;-73
2022/06/16 07:20:22;;;;;;;;;;;;;;;18.91;100.00;98997.03;4246125;33;20047;-73
2022/06/16 07:22:48;;;;;;;;;;;;;;;18.90;100.00;98995.44;4228567;33;20231;-74
2022/06/16 07:25:15;;;;;;;;;;;;;;;19.08;100.00;98993.69;4242395;33;19949;-73
2022/06/16 07:27:41;;;;;;;;;;;;;;;19.13;100.00;98994.37;4229004;33;19991;-73
2022/06/16 07:30:13;;;;;;;;;;;;;;;19.26;100.00;98994.63;4242286;33;19961;-73
2022/06/16 07:32:40;;;;;;;;;;;;;;;19.34;100.00;98996.66;4240647;33;19941;-74
2022/06/16 07:35:07;;;;;;;;;;;;;;;19.29;100.00;98983.09;4240620;33;19943;-73
2022/06/16 07:37:33;;;;;;;;;;;;;;;19.26;100.00;98994.63;4254946;33;19951;-72
2022/06/16 07:40:00;;;;;;;;;;;;;;;19.08;100.00;98986.28;4247961;33;19941;-72
2022/06/16 07:42:27;;;;;;;;;;;;;;;19.21;100.00;98990.09;4239168;33;20029;-75
2022/06/16 07:44:53;;;;;;;;;;;;;;;19.28;100.00;98989.69;4246220;33;19941;-72
2022/06/16 07:47:20;;;;;;;;;;;;;;;19.51;100.00;98983.09;4234534;33;20068;-73
2022/06/16 07:49:49;;;;;;;;;;;;;;;19.84;100.00;98985.63;4243977;33;19942;-73
2022/06/16 07:52:15;;;;;;;;;;;;;;;19.88;100.00;98983.88;4247149;33;19937;-72
2022/06/16 07:54:43;;;;;;;;;;;;;;;19.95;100.00;98989.69;4244204;33;19938;-74
2022/06/16 07:57:10;;;;;;;;;;;;;;;19.86;100.00;98988.81;4225730;33;20254;-70
2022/06/16 07:59:36;;;;;;;;;;;;;;;20.00;100.00;98988.75;4239599;33;19933;-69
2022/06/16 08:02:03;;;;;;;;;;;;;;;20.12;100.00;98988.19;4240571;33;19996;-70
2022/06/16 08:04:30;;;;;;;;;;;;;;;20.11;100.00;98986.56;4228849;33;20335;-69
2022/06/16 08:07:02;;;;;;;;;;;;;;;20.14;100.00;98988.69;4234157;33;19984;-70
2022/06/16 08:09:31;;;;;;;;;;;;;;;20.17;100.00;98974.38;4226568;33;19964;-70
2022/06/16 08:12:03;;;;;;;;;;;;;;;20.37;100.00;98970.25;4239813;33;19953;-71
2022/06/16 08:14:32;;;;;;;;;;;;;;;20.56;100.00;98980.94;4226502;33;19949;-71
2022/06/16 08:16:59;;;;;;;;;;;;;;;20.88;100.00;98972.69;4227190;33;20284;-70
2022/06/16 08:19:25;;;;;;;;;;;;;;;20.89;100.00;98974.31;4239016;33;19952;-68
2022/06/16 08:21:51;;;;;;;;;;;;;;;20.97;100.00;98977.06;4249858;33;20005;-68
2022/06/16 08:24:18;;;;;;;;;;;;;;;20.83;100.00;98973.66;4233785;33;19938;-68
2022/06/16 08:26:51;;;;;;;;;;;;;;;20.79;100.00;98975.41;4242245;33;20365;-69
2022/06/16 08:29:18;;;;;;;;;;;;;;;21.04;100.00;98982.88;4237431;33;19950;-69
2022/06/16 08:31:45;;;;;;;;;;;;;;;21.27;100.00;98979.97;4237625;33;19953;-70
2022/06/16 08:34:11;;;;;;;;;;;;;;;21.15;100.00;98982.53;4238136;33;20003;-70
2022/06/16 08:36:39;;;;;;;;;;;;;;;21.20;100.00;98983.19;4222327;33;19962;-69
2022/06/16 08:39:06;;;;;;;;;;;;;;;21.11;100.00;98981.56;4237278;33;19949;-68
2022/06/16 08:41:49;;;;;;;;;;;;;;;20.98;100.00;98984.16;4236430;33;20332;-68
2022/06/16 08:44:15;;;;;;;;;;;;;;;21.02;100.00;98973.34;4237133;33;19941;-70
2022/06/16 08:46:44;;;;;;;;;;;;;;;20.91;100.00;98988.47;4238194;33;20364;-69
2022/06/16 08:49:10;;;;;;;;;;;;;;;20.90;100.00;98981.38;4240019;33;19945;-68
2022/06/16 08:51:39;;;;;;;;;;;;;;;21.04;100.00;98985.59;4239685;33;19956;-68
2022/06/16 08:54:32;;;;;;;;;;;;;;;21.02;100.00;98979.63;4239148;33;19953;-69
2022/06/16 08:56:58;;;;;;;;;;;;;;;21.27;100.00;98979.16;4239553;33;20241;-68
2022/06/16 08:59:43;;;;;;;;;;;;;;;21.41;100.00;98974.31;4226272;33;19942;-68
2022/06/16 09:02:18;;;;;;;;;;;;;;;21.52;100.00;98974.81;4224429;33;19947;-68
2022/06/16 09:04:48;;;;;;;;;;;;;;;21.66;100.00;98975.44;4240174;33;20374;-68
2022/06/16 09:07:21;;;;;;;;;;;;;;;21.65;100.00;98976.59;4227361;33;19944;-68
2022/06/16 09:10:16;;;;;;;;;;;;;;;21.73;100.00;98975.78;4226197;33;19938;-69
2022/06/16 09:12:49;;;;;;;;;;;;;;;21.76;100.00;98971.56;4237251;33;19948;-68
2022/06/16 09:15:30;;;;;;;;;;;;;;;21.83;100.00;98979.31;4239881;33;19941;-68
2022/06/16 09:17:58;;;;;;;;;;;;;;;21.72;100.00;98968.69;4239346;33;19964;-68
2022/06/16 09:20:43;;;;;;;;;;;;;;;21.80;100.00;98969.78;4239165;33;19946;-69
2022/06/16 09:23:25;;;;;;;;;;;;;;;21.99;100.00;98963.94;4236798;33;19952;-69
2022/06/16 09:26:04;;;;;;;;;;;;;;;22.03;100.00;98964.09;4226515;33;19963;-67
2022/06/16 09:28:37;;;;;;;;;;;;;;;21.91;100.00;98962.03;4238812;33;19969;-70
2022/06/16 09:31:08;;;;;;;;;;;;;;;22.14;100.00;98954.38;4226068;33;19949;-70
2022/06/16 09:33:38;;;;;;;;;;;;;;;22.28;100.00;98962.38;4239261;33;20056;-69
2022/06/16 09:36:07;;;;;;;;;;;;;;;22.33;100.00;98959.47;4239192;33;20323;-69
2022/06/16 09:38:36;;;;;;;;;;;;;;;22.21;100.00;98956.59;4239375;33;19937;-70
2022/06/16 09:41:06;;;;;;;;;;;;;;;22.31;100.00;98956.28;4238587;33;20055;-69
2022/06/16 09:43:37;;;;;;;;;;;;;;;22.27;100.00;98960.75;4226197;33;19951;-70
2022/06/16 09:46:07;;;;;;;;;;;;;;;22.48;100.00;98960.84;4239063;33;19996;-69
2022/06/16 09:48:37;;;;;;;;;;;;;;;22.64;100.00;98963.84;4239924;33;19967;-69
2022/06/16 09:51:11;;;;;;;;;;;;;;;22.79;100.00;98957.78;4240715;33;19951;-68
2022/06/16 09:53:46;;;;;;;;;;;;;;;22.88;100.00;98956.91;4226986;33;19946;-68
2022/06/16 09:56:21;;;;;;;;;;;;;;;22.69;100.00;98960.91;4236965;33;19938;-68
2022/06/16 09:58:50;;;;;;;;;;;;;;;22.90;100.00;98954.66;4226040;33;20053;-68
2022/06/16 10:01:18;;;;;;;;;;;;;;;23.06;100.00;98963.09;4225914;33;19933;-68
2022/06/16 10:04:00;;;;;;;;;;;;;;;23.25;100.00;98954.38;4237447;33;19933;-67
2022/06/16 10:06:48;;;;;;;;;;;;;;;23.23;100.00;98953.94;4226940;33;19955;-69
2022/06/16 10:09:33;;;;;;;;;;;;;;;23.27;100.00;98941.94;4238516;33;19955;-68
2022/06/16 10:12:04;;;;;;;;;;;;;;;23.09;100.00;98952.28;4238874;33;20309;-68
2022/06/16 10:14:50;;;;;;;;;;;;;;;23.18;100.00;98950.25;4227329;33;19981;-68
2022/06/16 10:17:18;;;;;;;;;;;;;;;23.43;100.00;98950.38;4239355;33;20250;-68
2022/06/16 10:19:44;;;;;;;;;;;;;;;23.45;100.00;98939.03;4241999;33;19942;-68
2022/06/16 10:22:16;;;;;;;;;;;;;;;23.31;100.00;98936.56;4241930;33;19963;-68
2022/06/16 10:24:42;;;;;;;;;;;;;;;23.32;100.00;98929.94;4241170;33;20353;-69
2022/06/16 10:27:10;;;;;;;;;;;;;;;23.13;100.00;98935.91;4226716;33;20314;-71
2022/06/16 10:29:37;;;;;;;;;;;;;;;23.39;100.00;98943.91;4241036;33;20071;-69
2022/06/16 10:32:03;;;;;;;;;;;;;;;23.73;100.00;98936.50;4242825;33;20269;-69
2022/06/16 10:34:29;;;;;;;;;;;;;;;23.87;100.00;98942.53;4241506;33;19942;-69
2022/06/16 10:37:05;;;;;;;;;;;;;;;23.92;100.00;98945.03;4229587;33;19938;-69
2022/06/16 10:39:38;;;;;;;;;;;;;;;23.49;100.00;98937.22;4226741;33;20301;-69
2022/06/16 10:42:07;;;;;;;;;;;;;;;23.63;100.00;98928.66;4240874;33;19952;-69
2022/06/16 10:44:34;;;;;;;;;;;;;;;23.91;100.00;98937.94;4228019;33;19945;-69
2022/06/16 10:47:07;;;;;;;;;;;;;;;24.22;100.00;98931.09;4228168;33;19938;-71
2022/06/16 10:49:36;;;;;;;;;;;;;;;24.34;100.00;98938.53;4240753;33;20310;-69
2022/06/16 10:52:11;;;;;;;;;;;;;;;23.94;100.00;98937.25;4241279;33;19941;-69
2022/06/16 10:54:54;;;;;;;;;;;;;;;23.91;100.00;98943.44;4229358;33;19942;-69
2022/06/16 10:57:26;;;;;;;;;;;;;;;24.43;100.00;98946.69;4228182;33;19948;-69
2022/06/16 11:00:14;;;;;;;;;;;;;;;24.43;97.43;98943.94;4241478;33;19948;-68
2022/06/16 11:02:52;;;;;;;;;;;;;;;24.50;100.00;98943.38;4240339;33;19933;-69
2022/06/16 11:05:19;;;;;;;;;;;;;;;24.71;100.00;98948.75;4240858;33;19953;-68
2022/06/16 11:07:45;;;;;;;;;;;;;;;25.54;95.42;98939.03;4241227;33;19948;-68
2022/06/16 11:10:16;;;;;;;;;;;;;;;25.18;95.47;98942.69;4240937;33;19995;-68
2022/06/16 11:12:47;;;;;;;;;;;;;;;25.30;97.04;98934.37;4225300;33;20253;-71
2022/06/16 11:15:16;;;;;;;;;;;;;;;25.20;92.83;98932.13;4228226;33;20016;-69
2022/06/16 11:17:47;;;;;;;;;;;;;;;25.79;96.55;98932.56;4227679;33;19947;-69
2022/06/16 11:20:16;;;;;;;;;;;;;;;25.51;94.58;98930.62;4241171;33;20138;-69
2022/06/16 11:22:44;;;;;;;;;;;;;;;25.78;95.55;98925.44;4234579;33;20300;-71
2022/06/16 11:25:30;;;;;;;;;;;;;;;25.21;96.54;98928.22;4254085;33;19975;-69
2022/06/16 11:27:59;;;;;;;;;;;;;;;24.52;99.70;98930.84;4241766;33;19945;-68
2022/06/16 11:30:28;;;;;;;;;;;;;;;23.98;100.00;98920.88;4240450;33;19937;-71
2022/06/16 11:32:54;;;;;;;;;;;;;;;23.81;100.00;98921.84;4254536;33;19945;-68
2022/06/16 11:35:26;;;;;;;;;;;;;;;24.02;100.00;98926.50;4241846;33;20412;-68
2022/06/16 11:38:07;;;;;;;;;;;;;;;24.55;100.00;98913.66;4255771;33;20326;-69
2022/06/16 11:40:38;;;;;;;;;;;;;;;24.91;100.00;98912.00;4253779;33;19941;-69
2022/06/16 11:43:23;;;;;;;;;;;;;;;25.07;100.00;98916.78;4255695;33;19946;-68
2022/06/16 11:45:59;;;;;;;;;;;;;;;24.92;100.00;98908.12;4254781;33;19945;-69
2022/06/16 11:48:44;;;;;;;;;;;;;;;24.96;100.00;98908.22;4254626;33;20854;-68
2022/06/16 11:51:14;;;;;;;;;;;;;;;25.60;100.00;98898.19;4241373;33;19968;-68
2022/06/16 11:53:40;;;;;;;;;;;;;;;25.76;97.85;98900.19;4252439;33;20232;-70
2022/06/16 11:56:09;;;;;;;;;;;;;;;25.82;95.45;98904.28;4242367;33;20185;-67
2022/06/16 11:58:39;;;;;;;;;;;;;;;26.58;99.61;98885.63;4254693;33;19992;-70
2022/06/16 12:01:05;;;;;;;;;;;;;;;26.01;94.17;98879.56;4245527;33;20324;-68
2022/06/16 12:03:50;;;;;;;;;;;;;;;25.82;98.40;98884.97;4240715;33;19984;-69
2022/06/16 12:06:16;;;;;;;;;;;;;;;25.72;100.00;98876.06;4228295;33;19960;-68
2022/06/16 12:08:46;;;;;;;;;;;;;;;25.59;95.41;98880.03;4240047;33;19959;-68
2022/06/16 12:11:15;;;;;;;;;;;;;;;26.01;94.03;98876.03;4226495;33;19945;-70
2022/06/16 12:13:49;;;;;;;;;;;;;;;26.59;96.87;98864.34;4237149;33;20380;-68
2022/06/16 12:16:31;;;;;;;;;;;;;;;27.10;94.73;98874.50;4239810;33;19942;-69
2022/06/16 12:19:01;;;;;;;;;;;;;;;26.80;94.46;98859.28;4227078;33;19948;-71
2022/06/16 12:21:36;;;;;;;;;;;;;;;26.66;93.88;98858.19;4239433;33;19942;-68
2022/06/16 12:24:02;;;;;;;;;;;;;;;27.09;89.00;98854.38;4239656;33;20315;-68
2022/06/16 12:26:32;;;;;;;;;;;;;;;26.61;92.27;98857.31;4227435;33;19955;-68
2022/06/16 12:28:58;;;;;;;;;;;;;;;27.51;78.21;98853.59;4237892;33;20061;-71
2022/06/16 12:31:40;;;;;;;;;;;;;;;26.98;81.20;98865.19;4247425;33;19937;-69
2022/06/16 12:34:06;;;;;;;;;;;;;;;27.03;80.67;98850.28;4251052;33;19949;-69
2022/06/16 12:36:35;;;;;;;;;;;;;;;27.44;90.79;98847.91;4243744;33;20246;-69
2022/06/16 12:39:06;;;;;;;;;;;;;;;26.61;82.33;98845.44;4242969;33;19973;-70
2022/06/16 12:41:36;;;;;;;;;;;;;;;26.61;82.78;98840.75;4251238;33;19937;-69
2022/06/16 12:44:05;;;;;;;;;;;;;;;26.80;93.98;98842.72;4251799;33;19941;-69
2022/06/16 12:46:38;;;;;;;;;;;;;;;27.24;86.82;98843.59;4252767;33;20218;-69
2022/06/16 12:49:14;;;;;;;;;;;;;;;27.54;74.93;98847.31;4250325;33;19953;-69
2022/06/16 12:51:45;;;;;;;;;;;;;;;27.12;76.69;98831.50;4229303;33;19989;-70
2022/06/16 12:54:16;;;;;;;;;;;;;;;27.27;80.69;98837.28;4242900;33;19945;-69
2022/06/16 12:56:44;;;;;;;;;;;;;;;28.13;73.59;98833.28;4242362;33;19957;-69
2022/06/16 12:59:18;;;;;;;;;;;;;;;28.69;75.74;98830.91;4251789;33;19999;-69
2022/06/16 13:01:47;;;;;;;;;;;;;;;28.16;80.33;98821.47;4246674;33;19945;-68
2022/06/16 13:04:16;;;;;;;;;;;;;;;28.70;69.04;98821.41;4244680;33;19996;-70
2022/06/16 13:06:44;;;;;;;;;;;;;;;28.46;51.00;98817.91;4242114;33;20410;-69
2022/06/16 13:09:12;;;;;;;;;;;;;;;28.84;48.44;98807.75;4226392;33;19957;-68
2022/06/16 13:11:48;;;;;;;;;;;;;;;28.75;43.10;98802.50;4227511;33;19954;-69